sensor_id;sensor_type;location;lat;lon;timestamp;P1;durP1;ratioP1;P2;durP2;ratioP2
16892;SDS011;8563;52.242;9.098;2023-07-08T00:01:16;2.27;;;1.70;;
16892;SDS011;8563;52.242;9.098;2023-07-08T00:03:48;2.95;;;1.50;;
16892;SDS011;8563;52.242;9.098;2023-07-08T00:06:21;2.67;;;1.80;;
16892;SDS011;8563;52.242;9.098;2023-07-08T00:08:54;2.45;;;1.58;;
16892;SDS011;8563;52.242;9.098;2023-07-08T00:11:28;3.27;;;1.70;;
16892;SDS011;8563;52.242;9.098;2023-07-08T00:14:00;3.57;;;1.47;;
16892;SDS011;8563;52.242;9.098;2023-07-08T00:16:33;4.70;;;1.87;;
16892;SDS011;8563;52.242;9.098;2023-07-08T00:19:08;4.73;;;1.70;;
16892;SDS011;8563;52.242;9.098;2023-07-08T00:21:40;2.28;;;1.60;;
16892;SDS011;8563;52.242;9.098;2023-07-08T00:24:13;1.60;;;1.50;;
16892;SDS011;8563;52.242;9.098;2023-07-08T00:26:47;1.92;;;1.45;;
16892;SDS011;8563;52.242;9.098;2023-07-08T00:29:19;1.70;;;1.60;;
16892;SDS011;8563;52.242;9.098;2023-07-08T00:31:51;2.70;;;1.80;;
16892;SDS011;8563;52.242;9.098;2023-07-08T00:34:24;1.90;;;1.60;;
16892;SDS011;8563;52.242;9.098;2023-07-08T00:36:56;2.90;;;1.70;;
16892;SDS011;8563;52.242;9.098;2023-07-08T00:39:29;2.53;;;1.77;;
16892;SDS011;8563;52.242;9.098;2023-07-08T00:42:04;3.37;;;1.70;;
16892;SDS011;8563;52.242;9.098;2023-07-08T00:44:42;3.27;;;1.80;;
16892;SDS011;8563;52.242;9.098;2023-07-08T00:47:15;2.07;;;1.60;;
16892;SDS011;8563;52.242;9.098;2023-07-08T00:49:49;3.70;;;1.80;;
16892;SDS011;8563;52.242;9.098;2023-07-08T00:52:24;2.27;;;1.57;;
16892;SDS011;8563;52.242;9.098;2023-07-08T00:54:58;2.37;;;1.50;;
16892;SDS011;8563;52.242;9.098;2023-07-08T00:57:34;3.37;;;1.70;;
16892;SDS011;8563;52.242;9.098;2023-07-08T01:00:08;2.80;;;1.40;;
16892;SDS011;8563;52.242;9.098;2023-07-08T01:02:43;2.10;;;1.50;;
16892;SDS011;8563;52.242;9.098;2023-07-08T01:05:17;1.87;;;1.40;;
16892;SDS011;8563;52.242;9.098;2023-07-08T01:07:50;3.60;;;1.80;;
16892;SDS011;8563;52.242;9.098;2023-07-08T01:10:26;4.07;;;1.60;;
16892;SDS011;8563;52.242;9.098;2023-07-08T01:13:00;2.30;;;1.60;;
16892;SDS011;8563;52.242;9.098;2023-07-08T01:15:36;3.57;;;1.53;;
16892;SDS011;8563;52.242;9.098;2023-07-08T01:18:11;2.77;;;1.70;;
16892;SDS011;8563;52.242;9.098;2023-07-08T01:20:46;2.30;;;1.73;;
16892;SDS011;8563;52.242;9.098;2023-07-08T01:23:21;2.03;;;1.80;;
16892;SDS011;8563;52.242;9.098;2023-07-08T01:25:53;3.93;;;1.63;;
16892;SDS011;8563;52.242;9.098;2023-07-08T01:28:26;3.70;;;1.93;;
16892;SDS011;8563;52.242;9.098;2023-07-08T01:30:59;4.30;;;1.80;;
16892;SDS011;8563;52.242;9.098;2023-07-08T01:33:32;3.30;;;1.60;;
16892;SDS011;8563;52.242;9.098;2023-07-08T01:36:05;3.50;;;1.83;;
16892;SDS011;8563;52.242;9.098;2023-07-08T01:38:38;3.47;;;1.60;;
16892;SDS011;8563;52.242;9.098;2023-07-08T01:41:12;1.90;;;1.60;;
16892;SDS011;8563;52.242;9.098;2023-07-08T01:43:45;1.90;;;1.70;;
16892;SDS011;8563;52.242;9.098;2023-07-08T01:46:18;4.20;;;1.97;;
16892;SDS011;8563;52.242;9.098;2023-07-08T01:48:53;2.47;;;1.73;;
16892;SDS011;8563;52.242;9.098;2023-07-08T01:51:26;2.47;;;1.90;;
16892;SDS011;8563;52.242;9.098;2023-07-08T01:54:02;3.07;;;1.90;;
16892;SDS011;8563;52.242;9.098;2023-07-08T01:56:34;4.30;;;1.77;;
16892;SDS011;8563;52.242;9.098;2023-07-08T01:59:07;3.33;;;2.17;;
16892;SDS011;8563;52.242;9.098;2023-07-08T02:01:39;3.13;;;2.00;;
16892;SDS011;8563;52.242;9.098;2023-07-08T02:04:12;4.20;;;1.87;;
16892;SDS011;8563;52.242;9.098;2023-07-08T02:06:50;2.00;;;1.90;;
16892;SDS011;8563;52.242;9.098;2023-07-08T02:09:24;3.17;;;2.00;;
16892;SDS011;8563;52.242;9.098;2023-07-08T02:11:56;3.90;;;1.90;;
16892;SDS011;8563;52.242;9.098;2023-07-08T02:14:28;2.73;;;1.87;;
16892;SDS011;8563;52.242;9.098;2023-07-08T02:17:00;2.57;;;2.23;;
16892;SDS011;8563;52.242;9.098;2023-07-08T02:19:35;3.63;;;2.07;;
16892;SDS011;8563;52.242;9.098;2023-07-08T02:22:08;2.80;;;2.20;;
16892;SDS011;8563;52.242;9.098;2023-07-08T02:24:42;3.17;;;1.87;;
16892;SDS011;8563;52.242;9.098;2023-07-08T02:27:14;2.77;;;2.20;;
16892;SDS011;8563;52.242;9.098;2023-07-08T02:29:47;3.33;;;2.13;;
16892;SDS011;8563;52.242;9.098;2023-07-08T02:32:19;4.50;;;2.10;;
16892;SDS011;8563;52.242;9.098;2023-07-08T02:34:52;2.63;;;1.80;;
16892;SDS011;8563;52.242;9.098;2023-07-08T02:37:24;3.67;;;2.20;;
16892;SDS011;8563;52.242;9.098;2023-07-08T02:39:58;2.43;;;2.00;;
16892;SDS011;8563;52.242;9.098;2023-07-08T02:42:30;3.20;;;2.10;;
16892;SDS011;8563;52.242;9.098;2023-07-08T02:45:03;2.90;;;2.13;;
16892;SDS011;8563;52.242;9.098;2023-07-08T02:47:35;3.73;;;2.00;;
16892;SDS011;8563;52.242;9.098;2023-07-08T02:50:08;3.13;;;1.93;;
16892;SDS011;8563;52.242;9.098;2023-07-08T02:52:40;4.43;;;2.00;;
16892;SDS011;8563;52.242;9.098;2023-07-08T02:55:14;2.87;;;1.80;;
16892;SDS011;8563;52.242;9.098;2023-07-08T02:57:47;3.43;;;1.90;;
16892;SDS011;8563;52.242;9.098;2023-07-08T03:00:19;3.43;;;1.80;;
16892;SDS011;8563;52.242;9.098;2023-07-08T03:02:52;4.63;;;2.20;;
16892;SDS011;8563;52.242;9.098;2023-07-08T03:05:24;2.50;;;2.07;;
16892;SDS011;8563;52.242;9.098;2023-07-08T03:07:56;3.33;;;1.90;;
16892;SDS011;8563;52.242;9.098;2023-07-08T03:10:30;4.10;;;2.27;;
16892;SDS011;8563;52.242;9.098;2023-07-08T03:13:02;2.80;;;2.10;;
16892;SDS011;8563;52.242;9.098;2023-07-08T03:15:35;3.27;;;1.90;;
16892;SDS011;8563;52.242;9.098;2023-07-08T03:18:07;2.87;;;2.07;;
16892;SDS011;8563;52.242;9.098;2023-07-08T03:20:40;4.23;;;1.90;;
16892;SDS011;8563;52.242;9.098;2023-07-08T03:23:15;2.67;;;1.97;;
16892;SDS011;8563;52.242;9.098;2023-07-08T03:25:49;3.57;;;2.03;;
16892;SDS011;8563;52.242;9.098;2023-07-08T03:28:23;2.13;;;1.93;;
16892;SDS011;8563;52.242;9.098;2023-07-08T03:30:57;3.87;;;2.10;;
16892;SDS011;8563;52.242;9.098;2023-07-08T03:33:29;2.30;;;2.07;;
16892;SDS011;8563;52.242;9.098;2023-07-08T03:36:02;5.30;;;1.90;;
16892;SDS011;8563;52.242;9.098;2023-07-08T03:38:34;2.67;;;2.10;;
16892;SDS011;8563;52.242;9.098;2023-07-08T03:41:08;4.13;;;2.13;;
16892;SDS011;8563;52.242;9.098;2023-07-08T03:43:40;2.57;;;2.37;;
16892;SDS011;8563;52.242;9.098;2023-07-08T03:46:13;9.27;;;2.20;;
16892;SDS011;8563;52.242;9.098;2023-07-08T03:48:46;4.00;;;2.00;;
16892;SDS011;8563;52.242;9.098;2023-07-08T03:51:20;2.55;;;1.85;;
16892;SDS011;8563;52.242;9.098;2023-07-08T03:53:54;2.77;;;1.90;;
16892;SDS011;8563;52.242;9.098;2023-07-08T03:56:29;3.43;;;2.10;;
16892;SDS011;8563;52.242;9.098;2023-07-08T03:59:01;4.83;;;2.23;;
16892;SDS011;8563;52.242;9.098;2023-07-08T04:01:35;4.43;;;1.92;;
16892;SDS011;8563;52.242;9.098;2023-07-08T04:04:13;2.47;;;2.00;;
16892;SDS011;8563;52.242;9.098;2023-07-08T04:06:47;2.63;;;2.20;;
16892;SDS011;8563;52.242;9.098;2023-07-08T04:09:20;5.38;;;2.22;;
16892;SDS011;8563;52.242;9.098;2023-07-08T04:11:54;2.35;;;2.13;;
16892;SDS011;8563;52.242;9.098;2023-07-08T04:14:26;4.10;;;2.10;;
16892;SDS011;8563;52.242;9.098;2023-07-08T04:16:58;4.05;;;2.10;;
16892;SDS011;8563;52.242;9.098;2023-07-08T04:19:31;5.00;;;2.15;;
16892;SDS011;8563;52.242;9.098;2023-07-08T04:22:03;4.80;;;2.30;;
16892;SDS011;8563;52.242;9.098;2023-07-08T04:24:36;6.57;;;2.15;;
16892;SDS011;8563;52.242;9.098;2023-07-08T04:27:11;3.75;;;2.08;;
16892;SDS011;8563;52.242;9.098;2023-07-08T04:29:45;4.72;;;2.25;;
16892;SDS011;8563;52.242;9.098;2023-07-08T04:32:17;2.35;;;2.03;;
16892;SDS011;8563;52.242;9.098;2023-07-08T04:34:50;2.67;;;2.05;;
16892;SDS011;8563;52.242;9.098;2023-07-08T04:37:22;3.05;;;1.92;;
16892;SDS011;8563;52.242;9.098;2023-07-08T04:39:55;2.70;;;2.15;;
16892;SDS011;8563;52.242;9.098;2023-07-08T04:42:28;3.30;;;1.80;;
16892;SDS011;8563;52.242;9.098;2023-07-08T04:45:01;5.20;;;2.58;;
16892;SDS011;8563;52.242;9.098;2023-07-08T04:47:34;2.83;;;2.20;;
16892;SDS011;8563;52.242;9.098;2023-07-08T04:50:07;4.35;;;2.40;;
16892;SDS011;8563;52.242;9.098;2023-07-08T04:52:40;2.47;;;2.17;;
16892;SDS011;8563;52.242;9.098;2023-07-08T04:55:12;5.00;;;2.15;;
16892;SDS011;8563;52.242;9.098;2023-07-08T04:57:46;2.63;;;1.90;;
16892;SDS011;8563;52.242;9.098;2023-07-08T05:00:19;4.22;;;2.03;;
16892;SDS011;8563;52.242;9.098;2023-07-08T05:02:52;2.78;;;2.20;;
16892;SDS011;8563;52.242;9.098;2023-07-08T05:05:25;5.50;;;2.35;;
16892;SDS011;8563;52.242;9.098;2023-07-08T05:07:57;3.45;;;2.28;;
16892;SDS011;8563;52.242;9.098;2023-07-08T05:10:30;2.88;;;2.20;;
16892;SDS011;8563;52.242;9.098;2023-07-08T05:13:04;2.78;;;2.20;;
16892;SDS011;8563;52.242;9.098;2023-07-08T05:15:37;3.85;;;2.17;;
16892;SDS011;8563;52.242;9.098;2023-07-08T05:18:09;3.38;;;2.10;;
16892;SDS011;8563;52.242;9.098;2023-07-08T05:20:41;3.83;;;2.05;;
16892;SDS011;8563;52.242;9.098;2023-07-08T05:23:14;4.00;;;2.65;;
16892;SDS011;8563;52.242;9.098;2023-07-08T05:25:47;3.83;;;2.20;;
16892;SDS011;8563;52.242;9.098;2023-07-08T05:28:21;3.95;;;2.38;;
16892;SDS011;8563;52.242;9.098;2023-07-08T05:30:55;4.72;;;2.38;;
16892;SDS011;8563;52.242;9.098;2023-07-08T05:33:28;4.97;;;2.53;;
16892;SDS011;8563;52.242;9.098;2023-07-08T05:36:01;4.18;;;2.45;;
16892;SDS011;8563;52.242;9.098;2023-07-08T05:38:33;4.05;;;2.50;;
16892;SDS011;8563;52.242;9.098;2023-07-08T05:41:06;4.15;;;2.33;;
16892;SDS011;8563;52.242;9.098;2023-07-08T05:43:40;5.22;;;2.40;;
16892;SDS011;8563;52.242;9.098;2023-07-08T05:46:12;4.32;;;2.10;;
16892;SDS011;8563;52.242;9.098;2023-07-08T05:48:44;4.63;;;2.17;;
16892;SDS011;8563;52.242;9.098;2023-07-08T05:51:19;3.70;;;2.60;;
16892;SDS011;8563;52.242;9.098;2023-07-08T05:53:51;2.88;;;2.20;;
16892;SDS011;8563;52.242;9.098;2023-07-08T05:56:23;3.22;;;2.30;;
16892;SDS011;8563;52.242;9.098;2023-07-08T05:58:57;3.65;;;2.50;;
16892;SDS011;8563;52.242;9.098;2023-07-08T06:01:29;5.38;;;2.45;;
16892;SDS011;8563;52.242;9.098;2023-07-08T06:04:02;3.35;;;2.17;;
16892;SDS011;8563;52.242;9.098;2023-07-08T06:06:34;6.43;;;2.33;;
16892;SDS011;8563;52.242;9.098;2023-07-08T06:09:07;2.75;;;2.00;;
16892;SDS011;8563;52.242;9.098;2023-07-08T06:11:39;2.92;;;2.22;;
16892;SDS011;8563;52.242;9.098;2023-07-08T06:14:13;2.65;;;2.15;;
16892;SDS011;8563;52.242;9.098;2023-07-08T06:16:45;2.35;;;2.15;;
16892;SDS011;8563;52.242;9.098;2023-07-08T06:19:18;4.00;;;2.58;;
16892;SDS011;8563;52.242;9.098;2023-07-08T06:21:50;3.65;;;2.05;;
16892;SDS011;8563;52.242;9.098;2023-07-08T06:24:23;2.50;;;2.30;;
16892;SDS011;8563;52.242;9.098;2023-07-08T06:26:55;4.57;;;2.55;;
16892;SDS011;8563;52.242;9.098;2023-07-08T06:29:29;3.00;;;2.28;;
16892;SDS011;8563;52.242;9.098;2023-07-08T06:32:01;3.88;;;2.15;;
16892;SDS011;8563;52.242;9.098;2023-07-08T06:34:34;5.47;;;2.83;;
16892;SDS011;8563;52.242;9.098;2023-07-08T06:37:06;3.50;;;2.85;;
16892;SDS011;8563;52.242;9.098;2023-07-08T06:39:39;4.65;;;2.83;;
16892;SDS011;8563;52.242;9.098;2023-07-08T06:42:11;4.25;;;3.17;;
16892;SDS011;8563;52.242;9.098;2023-07-08T06:44:51;3.50;;;3.00;;
16892;SDS011;8563;52.242;9.098;2023-07-08T06:47:24;2.88;;;2.50;;
16892;SDS011;8563;52.242;9.098;2023-07-08T06:49:56;5.13;;;2.20;;
16892;SDS011;8563;52.242;9.098;2023-07-08T06:52:29;3.40;;;2.55;;
16892;SDS011;8563;52.242;9.098;2023-07-08T06:55:06;3.17;;;2.70;;
16892;SDS011;8563;52.242;9.098;2023-07-08T06:57:38;4.95;;;2.70;;
16892;SDS011;8563;52.242;9.098;2023-07-08T07:00:13;6.28;;;2.50;;
16892;SDS011;8563;52.242;9.098;2023-07-08T07:02:46;4.25;;;2.60;;
16892;SDS011;8563;52.242;9.098;2023-07-08T07:05:18;4.57;;;2.50;;
16892;SDS011;8563;52.242;9.098;2023-07-08T07:07:50;3.10;;;2.50;;
16892;SDS011;8563;52.242;9.098;2023-07-08T07:10:23;2.35;;;2.13;;
16892;SDS011;8563;52.242;9.098;2023-07-08T07:12:55;4.60;;;2.30;;
16892;SDS011;8563;52.242;9.098;2023-07-08T07:15:29;2.53;;;2.22;;
16892;SDS011;8563;52.242;9.098;2023-07-08T07:18:02;3.50;;;2.50;;
16892;SDS011;8563;52.242;9.098;2023-07-08T07:20:36;4.03;;;2.10;;
16892;SDS011;8563;52.242;9.098;2023-07-08T07:23:09;4.65;;;2.55;;
16892;SDS011;8563;52.242;9.098;2023-07-08T07:25:41;4.22;;;2.58;;
16892;SDS011;8563;52.242;9.098;2023-07-08T07:28:14;2.90;;;2.33;;
16892;SDS011;8563;52.242;9.098;2023-07-08T07:30:54;3.47;;;1.95;;
16892;SDS011;8563;52.242;9.098;2023-07-08T07:33:27;3.13;;;2.30;;
16892;SDS011;8563;52.242;9.098;2023-07-08T07:36:00;3.65;;;2.83;;
16892;SDS011;8563;52.242;9.098;2023-07-08T07:38:32;3.35;;;2.38;;
16892;SDS011;8563;52.242;9.098;2023-07-08T07:41:05;4.20;;;2.40;;
16892;SDS011;8563;52.242;9.098;2023-07-08T07:43:40;3.53;;;2.30;;
16892;SDS011;8563;52.242;9.098;2023-07-08T07:46:14;4.50;;;2.25;;
16892;SDS011;8563;52.242;9.098;2023-07-08T07:48:46;5.97;;;2.42;;
16892;SDS011;8563;52.242;9.098;2023-07-08T07:51:18;4.88;;;2.53;;
16892;SDS011;8563;52.242;9.098;2023-07-08T07:53:51;3.95;;;2.67;;
16892;SDS011;8563;52.242;9.098;2023-07-08T07:56:23;2.90;;;2.58;;
16892;SDS011;8563;52.242;9.098;2023-07-08T07:58:56;2.58;;;2.38;;
16892;SDS011;8563;52.242;9.098;2023-07-08T08:01:29;3.67;;;2.03;;
16892;SDS011;8563;52.242;9.098;2023-07-08T08:04:02;2.90;;;2.60;;
16892;SDS011;8563;52.242;9.098;2023-07-08T08:06:34;4.40;;;2.88;;
16892;SDS011;8563;52.242;9.098;2023-07-08T08:09:07;3.38;;;2.83;;
16892;SDS011;8563;52.242;9.098;2023-07-08T08:11:39;5.55;;;2.50;;
16892;SDS011;8563;52.242;9.098;2023-07-08T08:14:11;2.55;;;2.35;;
16892;SDS011;8563;52.242;9.098;2023-07-08T08:16:45;6.57;;;2.25;;
16892;SDS011;8563;52.242;9.098;2023-07-08T08:19:18;2.45;;;2.10;;
16892;SDS011;8563;52.242;9.098;2023-07-08T08:21:50;3.30;;;2.42;;
16892;SDS011;8563;52.242;9.098;2023-07-08T08:24:23;2.85;;;2.40;;
16892;SDS011;8563;52.242;9.098;2023-07-08T08:26:55;3.80;;;2.33;;
16892;SDS011;8563;52.242;9.098;2023-07-08T08:29:27;3.33;;;2.45;;
16892;SDS011;8563;52.242;9.098;2023-07-08T08:32:01;2.97;;;2.50;;
16892;SDS011;8563;52.242;9.098;2023-07-08T08:34:34;4.00;;;2.00;;
16892;SDS011;8563;52.242;9.098;2023-07-08T08:37:06;2.78;;;2.58;;
16892;SDS011;8563;52.242;9.098;2023-07-08T08:39:39;4.85;;;2.55;;
16892;SDS011;8563;52.242;9.098;2023-07-08T08:42:13;3.60;;;2.75;;
16892;SDS011;8563;52.242;9.098;2023-07-08T08:44:48;3.00;;;2.70;;
16892;SDS011;8563;52.242;9.098;2023-07-08T08:47:24;3.50;;;2.40;;
16892;SDS011;8563;52.242;9.098;2023-07-08T08:50:00;3.78;;;2.85;;
16892;SDS011;8563;52.242;9.098;2023-07-08T08:52:33;3.20;;;2.70;;
16892;SDS011;8563;52.242;9.098;2023-07-08T08:55:07;3.25;;;2.70;;
16892;SDS011;8563;52.242;9.098;2023-07-08T08:57:41;3.40;;;2.60;;
16892;SDS011;8563;52.242;9.098;2023-07-08T09:00:16;2.88;;;2.28;;
16892;SDS011;8563;52.242;9.098;2023-07-08T09:02:53;4.82;;;2.65;;
16892;SDS011;8563;52.242;9.098;2023-07-08T09:05:29;3.30;;;2.70;;
16892;SDS011;8563;52.242;9.098;2023-07-08T09:08:03;3.40;;;2.25;;
16892;SDS011;8563;52.242;9.098;2023-07-08T09:10:40;3.35;;;2.53;;
16892;SDS011;8563;52.242;9.098;2023-07-08T09:13:16;3.08;;;2.60;;
16892;SDS011;8563;52.242;9.098;2023-07-08T09:15:51;2.75;;;2.50;;
16892;SDS011;8563;52.242;9.098;2023-07-08T09:18:30;3.85;;;2.67;;
16892;SDS011;8563;52.242;9.098;2023-07-08T09:21:06;3.05;;;2.60;;
16892;SDS011;8563;52.242;9.098;2023-07-08T09:23:46;3.63;;;2.53;;
16892;SDS011;8563;52.242;9.098;2023-07-08T09:26:21;3.25;;;2.65;;
16892;SDS011;8563;52.242;9.098;2023-07-08T09:28:55;6.13;;;2.63;;
16892;SDS011;8563;52.242;9.098;2023-07-08T09:31:28;6.20;;;2.83;;
16892;SDS011;8563;52.242;9.098;2023-07-08T09:34:08;3.30;;;2.97;;
16892;SDS011;8563;52.242;9.098;2023-07-08T09:36:42;4.05;;;2.75;;
16892;SDS011;8563;52.242;9.098;2023-07-08T09:39:15;5.50;;;3.15;;
16892;SDS011;8563;52.242;9.098;2023-07-08T09:41:48;3.15;;;2.88;;
16892;SDS011;8563;52.242;9.098;2023-07-08T09:44:22;3.35;;;3.05;;
16892;SDS011;8563;52.242;9.098;2023-07-08T09:46:57;3.38;;;2.83;;
16892;SDS011;8563;52.242;9.098;2023-07-08T09:49:32;3.83;;;3.00;;
16892;SDS011;8563;52.242;9.098;2023-07-08T09:52:05;5.47;;;2.80;;
16892;SDS011;8563;52.242;9.098;2023-07-08T09:54:39;4.97;;;2.95;;
16892;SDS011;8563;52.242;9.098;2023-07-08T09:57:15;3.67;;;2.63;;
16892;SDS011;8563;52.242;9.098;2023-07-08T09:59:52;2.80;;;2.60;;
16892;SDS011;8563;52.242;9.098;2023-07-08T10:02:26;4.10;;;2.85;;
16892;SDS011;8563;52.242;9.098;2023-07-08T10:05:02;3.47;;;3.10;;
16892;SDS011;8563;52.242;9.098;2023-07-08T10:07:37;4.10;;;3.20;;
16892;SDS011;8563;52.242;9.098;2023-07-08T10:10:11;7.70;;;3.22;;
16892;SDS011;8563;52.242;9.098;2023-07-08T10:12:49;4.15;;;2.90;;
16892;SDS011;8563;52.242;9.098;2023-07-08T10:15:26;5.50;;;3.15;;
16892;SDS011;8563;52.242;9.098;2023-07-08T10:18:00;2.75;;;2.50;;
16892;SDS011;8563;52.242;9.098;2023-07-08T10:20:38;3.42;;;3.13;;
16892;SDS011;8563;52.242;9.098;2023-07-08T10:23:15;4.05;;;3.10;;
16892;SDS011;8563;52.242;9.098;2023-07-08T10:25:53;3.75;;;3.00;;
16892;SDS011;8563;52.242;9.098;2023-07-08T10:28:31;3.97;;;3.35;;
16892;SDS011;8563;52.242;9.098;2023-07-08T10:31:09;6.65;;;3.08;;
16892;SDS011;8563;52.242;9.098;2023-07-08T10:33:47;5.30;;;3.20;;
16892;SDS011;8563;52.242;9.098;2023-07-08T10:36:23;4.45;;;3.13;;
16892;SDS011;8563;52.242;9.098;2023-07-08T10:39:05;5.72;;;3.40;;
16892;SDS011;8563;52.242;9.098;2023-07-08T10:41:43;6.00;;;3.20;;
16892;SDS011;8563;52.242;9.098;2023-07-08T10:44:21;3.38;;;3.08;;
16892;SDS011;8563;52.242;9.098;2023-07-08T10:46:59;5.07;;;3.47;;
16892;SDS011;8563;52.242;9.098;2023-07-08T10:49:39;3.95;;;3.30;;
16892;SDS011;8563;52.242;9.098;2023-07-08T10:52:18;3.30;;;3.00;;
16892;SDS011;8563;52.242;9.098;2023-07-08T10:55:00;3.40;;;3.10;;
16892;SDS011;8563;52.242;9.098;2023-07-08T10:57:54;3.60;;;3.30;;
16892;SDS011;8563;52.242;9.098;2023-07-08T11:00:29;3.70;;;3.40;;
16892;SDS011;8563;52.242;9.098;2023-07-08T11:05:52;4.22;;;3.63;;
16892;SDS011;8563;52.242;9.098;2023-07-08T11:08:31;5.47;;;3.30;;
16892;SDS011;8563;52.242;9.098;2023-07-08T11:11:06;4.65;;;3.60;;
16892;SDS011;8563;52.242;9.098;2023-07-08T11:13:41;3.63;;;3.10;;
16892;SDS011;8563;52.242;9.098;2023-07-08T11:16:16;3.97;;;3.28;;
16892;SDS011;8563;52.242;9.098;2023-07-08T11:18:50;4.60;;;3.53;;
16892;SDS011;8563;52.242;9.098;2023-07-08T11:21:26;3.75;;;3.20;;
16892;SDS011;8563;52.242;9.098;2023-07-08T11:24:02;4.30;;;3.38;;
16892;SDS011;8563;52.242;9.098;2023-07-08T11:26:38;5.60;;;3.85;;
16892;SDS011;8563;52.242;9.098;2023-07-08T11:29:15;3.65;;;3.33;;
16892;SDS011;8563;52.242;9.098;2023-07-08T11:31:49;4.35;;;3.72;;
16892;SDS011;8563;52.242;9.098;2023-07-08T11:34:22;3.75;;;3.35;;
16892;SDS011;8563;52.242;9.098;2023-07-08T11:36:55;4.05;;;3.72;;
16892;SDS011;8563;52.242;9.098;2023-07-08T11:39:38;4.00;;;3.60;;
16892;SDS011;8563;52.242;9.098;2023-07-08T11:42:14;6.28;;;3.75;;
16892;SDS011;8563;52.242;9.098;2023-07-08T11:44:48;4.03;;;3.53;;
16892;SDS011;8563;52.242;9.098;2023-07-08T11:47:24;6.47;;;3.88;;
16892;SDS011;8563;52.242;9.098;2023-07-08T11:49:57;4.78;;;3.53;;
16892;SDS011;8563;52.242;9.098;2023-07-08T11:52:30;4.82;;;4.32;;
16892;SDS011;8563;52.242;9.098;2023-07-08T11:55:12;5.22;;;3.95;;
16892;SDS011;8563;52.242;9.098;2023-07-08T11:57:44;6.47;;;3.80;;
16892;SDS011;8563;52.242;9.098;2023-07-08T12:00:17;5.43;;;3.90;;
16892;SDS011;8563;52.242;9.098;2023-07-08T12:02:55;4.05;;;3.70;;
16892;SDS011;8563;52.242;9.098;2023-07-08T12:05:28;4.05;;;3.75;;
16892;SDS011;8563;52.242;9.098;2023-07-08T12:08:01;4.10;;;3.80;;
16892;SDS011;8563;52.242;9.098;2023-07-08T12:10:37;5.22;;;3.67;;
16892;SDS011;8563;52.242;9.098;2023-07-08T12:13:11;5.22;;;3.55;;
16892;SDS011;8563;52.242;9.098;2023-07-08T12:15:45;4.28;;;3.67;;
16892;SDS011;8563;52.242;9.098;2023-07-08T12:18:19;5.22;;;3.75;;
16892;SDS011;8563;52.242;9.098;2023-07-08T12:20:53;5.38;;;4.05;;
16892;SDS011;8563;52.242;9.098;2023-07-08T12:23:27;3.95;;;3.65;;
16892;SDS011;8563;52.242;9.098;2023-07-08T12:26:01;5.90;;;4.05;;
16892;SDS011;8563;52.242;9.098;2023-07-08T12:28:36;3.70;;;3.40;;
16892;SDS011;8563;52.242;9.098;2023-07-08T12:31:09;4.93;;;3.70;;
16892;SDS011;8563;52.242;9.098;2023-07-08T12:33:45;7.07;;;3.85;;
16892;SDS011;8563;52.242;9.098;2023-07-08T12:36:18;5.07;;;4.38;;
16892;SDS011;8563;52.242;9.098;2023-07-08T12:38:51;4.20;;;3.80;;
16892;SDS011;8563;52.242;9.098;2023-07-08T12:41:27;3.72;;;3.42;;
16892;SDS011;8563;52.242;9.098;2023-07-08T12:44:00;4.38;;;3.80;;
16892;SDS011;8563;52.242;9.098;2023-07-08T12:46:33;4.22;;;3.60;;
16892;SDS011;8563;52.242;9.098;2023-07-08T12:49:05;5.30;;;4.18;;
16892;SDS011;8563;52.242;9.098;2023-07-08T12:51:41;4.78;;;4.07;;
16892;SDS011;8563;52.242;9.098;2023-07-08T12:54:14;4.03;;;3.63;;
16892;SDS011;8563;52.242;9.098;2023-07-08T12:56:48;4.45;;;4.05;;
16892;SDS011;8563;52.242;9.098;2023-07-08T12:59:21;5.07;;;4.60;;
16892;SDS011;8563;52.242;9.098;2023-07-08T13:01:55;4.68;;;4.07;;
16892;SDS011;8563;52.242;9.098;2023-07-08T13:04:27;5.07;;;4.00;;
16892;SDS011;8563;52.242;9.098;2023-07-08T13:07:00;5.43;;;3.70;;
16892;SDS011;8563;52.242;9.098;2023-07-08T13:09:35;4.38;;;3.80;;
16892;SDS011;8563;52.242;9.098;2023-07-08T13:12:12;4.50;;;4.10;;
16892;SDS011;8563;52.242;9.098;2023-07-08T13:14:45;4.32;;;3.92;;
16892;SDS011;8563;52.242;9.098;2023-07-08T13:17:18;4.50;;;4.10;;
16892;SDS011;8563;52.242;9.098;2023-07-08T13:19:51;4.90;;;4.00;;
16892;SDS011;8563;52.242;9.098;2023-07-08T13:22:24;8.02;;;4.60;;
16892;SDS011;8563;52.242;9.098;2023-07-08T13:25:00;6.85;;;4.43;;
16892;SDS011;8563;52.242;9.098;2023-07-08T13:27:35;5.35;;;4.20;;
16892;SDS011;8563;52.242;9.098;2023-07-08T13:30:16;4.50;;;4.10;;
16892;SDS011;8563;52.242;9.098;2023-07-08T13:32:51;4.57;;;4.15;;
16892;SDS011;8563;52.242;9.098;2023-07-08T13:35:24;6.65;;;4.18;;
16892;SDS011;8563;52.242;9.098;2023-07-08T13:37:58;4.47;;;4.07;;
16892;SDS011;8563;52.242;9.098;2023-07-08T13:40:30;4.60;;;4.20;;
16892;SDS011;8563;52.242;9.098;2023-07-08T13:43:05;4.78;;;4.40;;
16892;SDS011;8563;52.242;9.098;2023-07-08T13:45:37;6.38;;;4.20;;
16892;SDS011;8563;52.242;9.098;2023-07-08T13:48:18;5.32;;;4.32;;
16892;SDS011;8563;52.242;9.098;2023-07-08T13:50:57;4.55;;;4.00;;
16892;SDS011;8563;52.242;9.098;2023-07-08T13:53:33;5.72;;;4.30;;
16892;SDS011;8563;52.242;9.098;2023-07-08T13:56:14;7.03;;;4.30;;
16892;SDS011;8563;52.242;9.098;2023-07-08T13:58:49;5.97;;;4.10;;
16892;SDS011;8563;52.242;9.098;2023-07-08T14:01:22;5.32;;;4.15;;
16892;SDS011;8563;52.242;9.098;2023-07-08T14:03:56;4.78;;;4.28;;
16892;SDS011;8563;52.242;9.098;2023-07-08T14:06:33;5.53;;;4.53;;
16892;SDS011;8563;52.242;9.098;2023-07-08T14:09:09;6.63;;;4.60;;
16892;SDS011;8563;52.242;9.098;2023-07-08T14:11:43;5.03;;;4.50;;
16892;SDS011;8563;52.242;9.098;2023-07-08T14:14:17;4.40;;;4.00;;
16892;SDS011;8563;52.242;9.098;2023-07-08T14:16:50;4.97;;;4.32;;
16892;SDS011;8563;52.242;9.098;2023-07-08T14:19:24;4.90;;;4.50;;
16892;SDS011;8563;52.242;9.098;2023-07-08T14:21:59;4.68;;;4.18;;
16892;SDS011;8563;52.242;9.098;2023-07-08T14:24:32;5.60;;;4.45;;
16892;SDS011;8563;52.242;9.098;2023-07-08T14:27:05;4.97;;;4.57;;
16892;SDS011;8563;52.242;9.098;2023-07-08T14:29:41;5.10;;;4.60;;
16892;SDS011;8563;52.242;9.098;2023-07-08T14:32:16;6.95;;;4.53;;
16892;SDS011;8563;52.242;9.098;2023-07-08T14:34:51;4.78;;;4.38;;
16892;SDS011;8563;52.242;9.098;2023-07-08T14:37:24;4.70;;;4.22;;
16892;SDS011;8563;52.242;9.098;2023-07-08T14:39:57;4.47;;;4.07;;
16892;SDS011;8563;52.242;9.098;2023-07-08T14:42:29;5.55;;;4.20;;
16892;SDS011;8563;52.242;9.098;2023-07-08T14:45:04;4.63;;;4.22;;
16892;SDS011;8563;52.242;9.098;2023-07-08T14:47:36;4.70;;;4.30;;
16892;SDS011;8563;52.242;9.098;2023-07-08T14:50:12;5.15;;;4.75;;
16892;SDS011;8563;52.242;9.098;2023-07-08T14:52:45;4.20;;;3.80;;
16892;SDS011;8563;52.242;9.098;2023-07-08T14:55:17;4.10;;;3.80;;
16892;SDS011;8563;52.242;9.098;2023-07-08T14:57:50;5.88;;;4.75;;
16892;SDS011;8563;52.242;9.098;2023-07-08T15:00:24;4.57;;;4.18;;
16892;SDS011;8563;52.242;9.098;2023-07-08T15:02:56;5.97;;;4.57;;
16892;SDS011;8563;52.242;9.098;2023-07-08T15:05:29;5.05;;;4.53;;
16892;SDS011;8563;52.242;9.098;2023-07-08T15:08:01;5.15;;;4.22;;
16892;SDS011;8563;52.242;9.098;2023-07-08T15:10:35;4.88;;;4.32;;
16892;SDS011;8563;52.242;9.098;2023-07-08T15:13:08;5.72;;;4.40;;
16892;SDS011;8563;52.242;9.098;2023-07-08T15:15:42;4.80;;;4.40;;
16892;SDS011;8563;52.242;9.098;2023-07-08T15:18:15;5.38;;;4.40;;
16892;SDS011;8563;52.242;9.098;2023-07-08T15:20:49;6.35;;;4.30;;
16892;SDS011;8563;52.242;9.098;2023-07-08T15:23:22;5.60;;;4.65;;
16892;SDS011;8563;52.242;9.098;2023-07-08T15:25:54;4.43;;;4.00;;
16892;SDS011;8563;52.242;9.098;2023-07-08T15:28:34;4.97;;;4.40;;
16892;SDS011;8563;52.242;9.098;2023-07-08T15:31:09;4.97;;;4.50;;
16892;SDS011;8563;52.242;9.098;2023-07-08T15:33:42;6.63;;;4.70;;
16892;SDS011;8563;52.242;9.098;2023-07-08T15:36:15;5.80;;;4.18;;
16892;SDS011;8563;52.242;9.098;2023-07-08T15:38:47;5.13;;;4.47;;
16892;SDS011;8563;52.242;9.098;2023-07-08T15:41:20;4.55;;;4.15;;
16892;SDS011;8563;52.242;9.098;2023-07-08T15:43:53;4.68;;;4.28;;